Time;durP1;ratioP1;P1;durP2;ratioP2;P2;SDS_P1;SDS_P2;PMS_P1;PMS_P2;Temp;Humidity;BMP_temperature;BMP_pressure;BME280_temperature;BME280_humidity;BME280_pressure;Samples;Min_cycle;Max_cycle;Signal;HPM_P1;HPM_P2
2022/01/02 00:00:04;;;;;;;6.35;5.75;;;;;;;5.91;80.84;99177.28;4112999;28;20214;-53
2022/01/02 00:02:09;;;;;;;6.68;6.18;;;;;;;5.96;80.92;99181.06;4126667;28;20206;-54
2022/01/02 00:04:22;;;;;;;5.63;5.22;;;;;;;6.00;80.42;99184.22;4112271;28;20293;-54
2022/01/02 00:06:25;;;;;;;5.47;5.07;;;;;;;6.00;80.41;99185.06;4110364;28;20277;-54
2022/01/02 00:08:26;;;;;;;4.63;4.32;;;;;;;6.00;80.11;99173.34;4108543;28;20234;-54
2022/01/02 00:10:39;;;;;;;6.35;5.85;;;;;;;6.01;80.40;99175.84;4111452;28;20845;-54
2022/01/02 00:12:44;;;;;;;6.88;6.15;;;;;;;6.00;80.59;99179.63;4127824;28;20198;-52
2022/01/02 00:14:47;;;;;;;7.15;6.55;;;;;;;6.01;80.33;99183.16;4093676;28;20700;-53
2022/01/02 00:16:50;;;;;;;7.47;6.70;;;;;;;6.00;80.10;99179.63;4122166;28;20214;-54
2022/01/02 00:19:04;;;;;;;8.75;8.05;;;;;;;6.01;80.13;99180.44;4124590;28;20230;-54
2022/01/02 00:21:10;;;;;;;7.45;6.85;;;;;;;6.02;80.00;99182.16;4094330;28;20199;-52
2022/01/02 00:23:19;;;;;;;8.30;7.70;;;;;;;5.97;79.65;99180.00;4123593;28;20214;-53
2022/01/02 00:25:28;;;;;;;7.25;6.75;;;;;;;5.94;80.08;99180.44;4110916;28;20688;-52
2022/01/02 00:27:31;;;;;;;7.53;7.03;;;;;;;5.97;79.93;99174.59;4094847;28;20851;-55
2022/01/02 00:29:36;;;;;;;11.40;7.25;;;;;;;5.75;79.60;99167.59;4108423;28;20215;-54
2022/01/02 00:31:39;;;;;;;7.40;6.82;;;;;;;5.78;80.08;99169.06;4108144;28;20794;-53
2022/01/02 00:33:42;;;;;;;7.82;6.80;;;;;;;5.77;80.17;99178.25;4109767;28;20238;-55
2022/01/02 00:35:43;;;;;;;7.18;6.28;;;;;;;5.76;80.33;99176.59;4109085;28;20214;-54
2022/01/02 00:37:45;;;;;;;6.35;5.88;;;;;;;5.72;80.09;99175.31;4094561;28;20232;-55
2022/01/02 00:39:47;;;;;;;7.47;6.88;;;;;;;5.67;79.75;99167.78;4105060;28;20203;-53
2022/01/02 00:41:57;;;;;;;7.38;6.78;;;;;;;5.64;79.70;99167.34;4123196;28;20619;-54
2022/01/02 00:44:08;;;;;;;6.38;5.88;;;;;;;5.60;79.92;99180.50;4107226;28;20306;-54
2022/01/02 00:46:12;;;;;;;7.07;6.53;;;;;;;5.55;79.81;99171.28;4112508;28;20214;-55
2022/01/02 00:48:38;;;;;;;6.20;5.80;;;;;;;5.49;79.82;99169.38;4125678;28;20956;-54
2022/01/02 00:51:11;;;;;;;8.10;7.40;;;;;;;5.50;80.06;99160.19;4121906;28;20213;-53
2022/01/02 00:53:13;;;;;;;8.02;7.43;;;;;;;5.42;79.63;99157.66;4107319;28;20203;-54
2022/01/02 00:55:19;;;;;;;12.38;6.90;;;;;;;5.36;79.75;99151.16;4108665;28;20211;-56
2022/01/02 00:57:30;;;;;;;9.93;6.13;;;;;;;5.31;79.89;99160.94;4108354;28;20297;-53
2022/01/02 00:59:47;;;;;;;6.93;6.43;;;;;;;5.35;80.01;99154.09;4103631;28;20652;-54
2022/01/02 01:02:03;;;;;;;6.43;5.93;;;;;;;5.31;79.98;99150.09;4124397;28;20305;-54
2022/01/02 01:04:06;;;;;;;6.65;6.25;;;;;;;5.39;80.01;99152.63;4126130;28;20197;-55
2022/01/02 01:06:09;;;;;;;5.10;4.70;;;;;;;5.29;79.39;99141.31;4124171;28;20206;-56
2022/01/02 01:08:11;;;;;;;5.40;5.00;;;;;;;5.32;79.37;99140.91;4110324;28;20373;-55
2022/01/02 01:10:13;;;;;;;6.28;5.75;;;;;;;5.25;79.94;99145.47;4110046;28;20211;-52
2022/01/02 01:12:16;;;;;;;4.55;4.25;;;;;;;5.25;80.01;99143.59;4091816;28;20247;-53
2022/01/02 01:14:17;;;;;;;4.40;4.10;;;;;;;5.28;80.28;99139.63;4123075;28;20252;-55
2022/01/02 01:16:20;;;;;;;4.60;4.30;;;;;;;5.26;79.94;99137.13;4125153;28;20238;-53
2022/01/02 01:18:23;;;;;;;4.60;4.30;;;;;;;5.27;80.05;99141.50;4109686;28;20234;-52
2022/01/02 01:20:29;;;;;;;3.85;3.58;;;;;;;5.28;79.76;99145.03;4107871;28;20231;-54
2022/01/02 01:22:31;;;;;;;3.92;3.63;;;;;;;5.30;79.97;99137.56;4124098;28;20255;-55
2022/01/02 01:24:35;;;;;;;4.63;4.32;;;;;;;5.27;79.76;99137.94;4110626;28;20251;-51
2022/01/02 01:26:38;;;;;;;5.15;4.75;;;;;;;5.25;79.81;99145.47;4121499;28;20210;-52
2022/01/02 01:28:39;;;;;;;4.32;4.05;;;;;;;5.24;79.67;99150.03;4108972;28;20720;-56
2022/01/02 01:30:41;;;;;;;5.25;4.85;;;;;;;5.22;79.54;99154.00;4123787;28;20241;-53
2022/01/02 01:32:44;;;;;;;4.53;4.15;;;;;;;5.24;79.82;99149.22;4107831;28;20336;-53
2022/01/02 01:34:45;;;;;;;5.28;4.07;;;;;;;5.27;79.53;99143.38;4125388;28;20226;-51
2022/01/02 01:36:47;;;;;;;5.57;5.10;;;;;;;5.25;79.63;99140.03;4113242;28;20209;-53
2022/01/02 01:38:49;;;;;;;4.00;3.70;;;;;;;5.18;79.09;99139.16;4126005;28;20966;-55
2022/01/02 01:40:56;;;;;;;4.40;4.00;;;;;;;5.18;79.77;99126.44;4108731;28;20252;-51
2022/01/02 01:43:00;;;;;;;3.65;3.42;;;;;;;5.34;79.25;99127.97;4127740;28;20668;-53
2022/01/02 01:47:06;;;;;;;3.70;3.35;;;;;;;5.25;79.43;99130.03;4127944;28;20210;-54
2022/01/02 01:49:19;;;;;;;5.13;4.65;;;;;;;5.26;79.64;99136.28;4126606;28;20230;-53
2022/01/02 01:51:22;;;;;;;3.97;3.65;;;;;;;5.22;79.63;99135.03;4111196;28;20210;-53
2022/01/02 01:53:23;;;;;;;4.28;3.88;;;;;;;5.25;79.59;99134.59;4111464;28;20648;-54
2022/01/02 01:55:25;;;;;;;4.32;4.03;;;;;;;5.20;79.43;99127.06;4112577;28;20633;-53
2022/01/02 01:57:27;;;;;;;4.55;4.15;;;;;;;5.25;79.57;99124.59;4113649;28;20728;-52
2022/01/02 01:59:28;;;;;;;4.97;4.57;;;;;;;5.19;79.24;99113.72;4124224;28;20234;-54
2022/01/02 02:01:32;;;;;;;4.43;4.13;;;;;;;5.16;79.45;99108.69;4122831;28;20699;-53
2022/01/02 02:03:34;;;;;;;4.78;4.47;;;;;;;5.21;79.42;99114.34;4104428;28;20685;-52
2022/01/02 02:05:36;;;;;;;4.55;4.25;;;;;;;5.08;78.80;99103.41;4121967;28;20240;-52
2022/01/02 02:07:42;;;;;;;4.18;3.88;;;;;;;5.07;79.64;99104.47;4121929;28;20229;-53
2022/01/02 02:10:03;;;;;;;4.82;4.43;;;;;;;5.09;79.92;99111.34;4124068;28;20206;-52
2022/01/02 02:12:05;;;;;;;5.40;5.00;;;;;;;5.10;79.56;99110.31;4123984;28;21061;-53
2022/01/02 02:14:07;;;;;;;4.70;4.40;;;;;;;5.10;80.11;99109.50;4108103;28;20685;-54
2022/01/02 02:16:09;;;;;;;4.20;3.80;;;;;;;5.15;79.72;99101.59;4105612;28;20752;-52
2022/01/02 02:18:11;;;;;;;7.63;5.32;;;;;;;5.07;79.95;99101.75;4106680;28;20882;-52
2022/01/02 02:20:19;;;;;;;4.95;4.65;;;;;;;5.07;80.01;99095.50;4107928;28;20718;-52
2022/01/02 02:22:20;;;;;;;4.38;4.00;;;;;;;5.05;79.73;99101.13;4123524;28;20214;-54
2022/01/02 02:24:22;;;;;;;4.72;4.43;;;;;;;5.05;79.78;99101.13;4109277;28;20712;-53
2022/01/02 02:26:24;;;;;;;5.07;4.68;;;;;;;5.05;79.67;99092.97;4125993;28;20210;-52
2022/01/02 02:28:27;;;;;;;4.22;3.92;;;;;;;5.01;79.67;99083.56;4094048;28;20238;-55
2022/01/02 02:30:32;;;;;;;3.85;3.55;;;;;;;4.99;79.86;99082.13;4108385;28;20301;-52
2022/01/02 02:32:34;;;;;;;4.93;4.53;;;;;;;4.97;79.82;99081.47;4106592;28;20280;-53
2022/01/02 02:34:35;;;;;;;5.28;4.78;;;;;;;4.94;79.49;99085.41;4109922;28;20657;-52
2022/01/02 02:36:37;;;;;;;3.92;3.45;;;;;;;4.92;79.20;99084.78;4104405;28;20226;-52
2022/01/02 02:38:40;;;;;;;3.72;3.42;;;;;;;4.87;79.06;99075.59;4106155;28;21153;-53
2022/01/02 02:40:41;;;;;;;4.57;3.72;;;;;;;4.80;78.79;99072.81;4120614;28;20218;-52
2022/01/02 02:43:05;;;;;;;2.72;2.55;;;;;;;4.78;79.20;99074.91;4122274;28;20286;-55
2022/01/02 02:49:53;;;;;;;3.67;3.30;;;;;;;4.71;78.95;99065.91;4121355;28;20209;-52
2022/01/02 02:52:00;;;;;;;3.83;3.53;;;;;;;4.70;79.30;99069.66;4089780;28;20234;-53
2022/01/02 02:54:03;;;;;;;4.13;3.65;;;;;;;4.71;79.17;99082.16;4091870;28;20311;-54
2022/01/02 02:56:30;;;;;;;5.10;3.22;;;;;;;4.70;79.13;99080.50;4105045;28;20230;-53
2022/01/02 03:00:35;;;;;;;3.80;3.50;;;;;;;4.70;79.12;99080.50;4104993;28;20293;-54
2022/01/02 03:02:37;;;;;;;4.35;3.95;;;;;;;4.66;78.95;99068.34;4106078;28;20331;-52
2022/01/02 03:04:39;;;;;;;4.50;4.20;;;;;;;4.63;78.90;99074.19;4109264;28;20929;-53
2022/01/02 03:06:41;;;;;;;4.15;3.85;;;;;;;4.70;78.81;99071.50;4117417;28;20210;-52
2022/01/02 03:08:45;;;;;;;3.30;3.10;;;;;;;4.66;79.34;99062.94;4103376;28;20230;-53
2022/01/02 03:10:46;;;;;;;4.28;3.65;;;;;;;4.70;79.56;99066.09;4103665;28;22140;-52
2022/01/02 03:12:48;;;;;;;6.60;4.57;;;;;;;4.71;79.42;99065.91;4120483;28;20277;-53
2022/01/02 03:14:50;;;;;;;6.22;5.82;;;;;;;4.74;79.39;99053.81;4105059;28;20648;-53
2022/01/02 03:16:52;;;;;;;5.75;4.97;;;;;;;4.71;80.44;99041.50;4125096;28;20209;-53
2022/01/02 03:18:54;;;;;;;6.60;6.00;;;;;;;4.71;80.73;99044.22;4125311;28;20238;-51
2022/01/02 03:20:56;;;;;;;6.20;5.60;;;;;;;4.75;81.01;99039.22;4108363;28;20681;-52
2022/01/02 03:22:58;;;;;;;6.30;5.75;;;;;;;4.81;80.59;99043.84;4125130;28;20202;-52
2022/01/02 03:25:00;;;;;;;5.15;4.75;;;;;;;4.80;80.49;99036.75;4121619;28;20242;-51
2022/01/02 03:27:02;;;;;;;5.80;5.30;;;;;;;4.79;80.24;99030.50;4105539;28;20207;-53
2022/01/02 03:29:04;;;;;;;5.30;4.90;;;;;;;4.79;80.43;99030.50;4121409;28;20222;-51
2022/01/02 03:31:06;;;;;;;8.75;5.65;;;;;;;4.79;79.79;99025.06;4121849;28;20241;-52
2022/01/02 03:33:11;;;;;;;5.70;4.70;;;;;;;4.80;80.01;99025.91;4107320;28;20258;-51
2022/01/02 03:35:16;;;;;;;6.40;5.90;;;;;;;4.78;80.52;99017.97;4109471;28;20261;-53
2022/01/02 03:37:18;;;;;;;6.10;5.65;;;;;;;4.81;80.95;99022.97;4123895;28;20211;-51
2022/01/02 03:39:20;;;;;;;6.35;5.85;;;;;;;4.87;80.54;99016.75;4122166;28;20253;-51
2022/01/02 03:41:22;;;;;;;6.30;5.80;;;;;;;4.89;80.46;99012.00;4125854;28;20217;-52
2022/01/02 03:43:24;;;;;;;6.38;5.78;;;;;;;4.89;80.45;99014.69;4108299;28;20313;-52
2022/01/02 03:45:25;;;;;;;5.40;4.90;;;;;;;4.93;80.56;99013.25;4110080;28;20203;-51
2022/01/02 03:47:27;;;;;;;5.82;5.35;;;;;;;4.95;80.41;99013.91;4111536;28;20281;-53
2022/01/02 03:49:29;;;;;;;6.93;5.45;;;;;;;4.94;80.06;99012.19;4111011;28;20553;-52
2022/01/02 03:51:32;;;;;;;5.32;4.82;;;;;;;4.96;79.87;99015.56;4124825;28;20277;-51
2022/01/02 03:53:34;;;;;;;5.75;5.25;;;;;;;4.95;79.93;99011.19;4125891;28;20214;-51
2022/01/02 03:55:38;;;;;;;4.03;3.75;;;;;;;4.95;80.29;98997.63;4114031;28;20250;-51
2022/01/02 03:57:40;;;;;;;3.65;3.35;;;;;;;4.97;80.11;99000.13;4128178;28;20265;-52
2022/01/02 03:59:41;;;;;;;5.10;4.00;;;;;;;4.89;79.85;98998.44;4110852;28;20207;-53
2022/01/02 04:01:43;;;;;;;4.80;4.40;;;;;;;4.89;79.57;98987.59;4128408;28;20206;-54
2022/01/02 04:03:45;;;;;;;4.68;4.28;;;;;;;4.90;79.50;98983.00;4114883;28;20203;-52
2022/01/02 04:05:47;;;;;;;4.00;3.70;;;;;;;4.90;79.49;98983.00;4112836;28;20252;-52
2022/01/02 04:07:48;;;;;;;7.93;3.58;;;;;;;4.92;79.66;98984.47;4113885;28;20234;-51
2022/01/02 04:09:51;;;;;;;3.67;3.38;;;;;;;4.94;79.77;98985.09;4127831;28;20735;-53
2022/01/02 04:11:52;;;;;;;4.10;3.80;;;;;;;4.96;79.69;98980.31;4126113;28;20212;-52
2022/01/02 04:13:54;;;;;;;4.47;4.07;;;;;;;4.97;79.59;98989.28;4111745;28;20202;-52
2022/01/02 04:15:56;;;;;;;6.05;4.30;;;;;;;4.97;79.52;98973.84;4116105;28;20219;-53
2022/01/02 04:17:57;;;;;;;6.47;4.25;;;;;;;4.99;79.69;98970.94;4124268;28;20230;-52
2022/01/02 04:20:03;;;;;;;5.30;4.90;;;;;;;5.00;79.67;98973.44;4110459;28;20203;-52
2022/01/02 04:22:05;;;;;;;5.05;4.50;;;;;;;5.00;79.67;98973.44;4124597;28;20683;-52
2022/01/02 04:24:07;;;;;;;5.05;4.65;;;;;;;5.01;79.71;98971.56;4123747;28;20206;-51
2022/01/02 04:26:08;;;;;;;5.07;4.57;;;;;;;5.01;79.83;98958.81;4125134;28;20652;-54
2022/01/02 04:28:10;;;;;;;5.00;4.60;;;;;;;5.04;79.96;98953.00;4110063;28;20281;-51
2022/01/02 04:30:12;;;;;;;4.35;4.05;;;;;;;5.17;79.49;98947.63;4110406;28;20254;-51
2022/01/02 04:32:14;;;;;;;6.30;5.82;;;;;;;5.14;80.64;98942.59;4107999;28;20715;-52
2022/01/02 04:34:16;;;;;;;5.50;5.03;;;;;;;5.10;80.73;98963.03;4109112;28;20277;-52
2022/01/02 04:36:18;;;;;;;5.63;5.22;;;;;;;5.10;80.77;98973.88;4112431;28;20245;-51
2022/01/02 04:38:19;;;;;;;6.45;6.03;;;;;;;5.09;80.24;98973.03;4126334;28;20336;-52
2022/01/02 04:40:21;;;;;;;6.93;6.05;;;;;;;5.10;80.34;98965.75;4094229;28;20224;-54
2022/01/02 04:42:23;;;;;;;7.32;6.72;;;;;;;5.12;80.73;98957.41;4107407;28;20247;-51
2022/01/02 04:44:25;;;;;;;6.35;5.85;;;;;;;5.13;80.52;98962.63;4109932;28;20210;-52
2022/01/02 04:46:26;;;;;;;5.75;5.30;;;;;;;5.18;80.90;98954.72;4126169;28;20683;-53
2022/01/02 04:48:28;;;;;;;5.97;5.47;;;;;;;5.19;80.52;98967.22;4107623;28;20365;-52
2022/01/02 04:50:30;;;;;;;6.15;5.63;;;;;;;5.23;80.39;98952.22;4109514;28;20245;-52
2022/01/02 04:52:31;;;;;;;5.85;5.45;;;;;;;5.19;80.40;98942.81;4122119;28;20708;-54
2022/01/02 04:54:33;;;;;;;7.03;5.88;;;;;;;5.31;80.29;98943.88;4108896;28;20214;-53
2022/01/02 04:56:35;;;;;;;7.25;6.65;;;;;;;5.38;80.52;98933.88;4107510;28;20214;-53
2022/01/02 04:58:37;;;;;;;8.45;7.68;;;;;;;5.29;81.33;98929.69;4108254;28;20241;-51
2022/01/02 05:00:38;;;;;;;6.75;6.15;;;;;;;5.29;81.18;98929.69;4109289;28;20206;-53
2022/01/02 05:02:43;;;;;;;8.20;7.53;;;;;;;5.31;81.30;98927.59;4125639;28;20350;-53
2022/01/02 05:04:45;;;;;;;8.40;7.70;;;;;;;5.26;81.64;98920.09;4123735;28;20742;-53
2022/01/02 05:06:47;;;;;;;8.38;7.78;;;;;;;5.26;81.70;98919.25;4105156;28;20306;-53
2022/01/02 05:08:48;;;;;;;7.65;7.07;;;;;;;5.26;81.68;98919.25;4124909;28;20234;-53
2022/01/02 05:10:50;;;;;;;7.90;6.38;;;;;;;5.28;81.54;98919.88;4107120;28;20257;-52
2022/01/02 05:12:52;;;;;;;6.82;6.40;;;;;;;5.27;81.36;98915.50;4109418;28;20222;-55
2022/01/02 05:14:54;;;;;;;10.52;6.57;;;;;;;5.29;81.41;98913.44;4096422;28;20218;-52
2022/01/02 05:16:55;;;;;;;8.65;7.68;;;;;;;5.33;81.26;98914.66;4123173;28;21485;-52
2022/01/02 05:18:58;;;;;;;8.88;7.00;;;;;;;5.31;81.00;98916.75;4109788;28;20218;-54
2022/01/02 05:21:00;;;;;;;7.20;6.68;;;;;;;5.29;80.77;98913.44;4091134;28;20207;-54
2022/01/02 05:23:02;;;;;;;7.15;6.55;;;;;;;5.32;81.11;98923.84;4124485;28;20205;-52
2022/01/02 05:25:04;;;;;;;6.55;6.05;;;;;;;5.31;81.10;98927.59;4122105;28;20648;-53
2022/01/02 05:27:06;;;;;;;5.75;5.25;;;;;;;5.28;80.96;98928.84;4108872;28;20211;-53
2022/01/02 05:29:08;;;;;;;6.43;5.95;;;;;;;5.26;80.80;98930.09;4121984;28;20230;-54
2022/01/02 05:31:10;;;;;;;5.68;5.20;;;;;;;5.27;80.66;98937.19;4091387;28;20215;-55
2022/01/02 05:33:11;;;;;;;5.15;4.63;;;;;;;5.27;80.61;98942.63;4124073;28;20277;-52
2022/01/02 05:35:13;;;;;;;5.00;4.60;;;;;;;5.25;80.66;98934.72;4104376;28;20238;-54
2022/01/02 05:37:15;;;;;;;5.70;5.20;;;;;;;5.24;80.69;98938.44;4123448;28;20225;-55
2022/01/02 05:39:18;;;;;;;5.63;5.25;;;;;;;5.25;80.69;98944.72;4105753;28;20275;-54
2022/01/02 05:41:20;;;;;;;5.80;5.40;;;;;;;5.23;80.59;98942.19;4090886;28;20226;-52
2022/01/02 05:43:21;;;;;;;6.63;6.13;;;;;;;5.36;80.18;98933.25;4108976;28;20206;-52
2022/01/02 05:45:23;;;;;;;6.07;5.68;;;;;;;5.26;80.41;98935.53;4109412;28;20210;-52
2022/01/02 05:47:25;;;;;;;5.78;5.38;;;;;;;5.24;80.38;98926.75;4106791;28;20206;-54
2022/01/02 05:49:26;;;;;;;6.22;5.80;;;;;;;5.26;80.57;98930.09;4091169;28;20694;-54
2022/01/02 05:51:29;;;;;;;6.70;6.20;;;;;;;5.29;80.49;98919.66;4125294;28;20450;-52
2022/01/02 05:53:31;;;;;;;6.55;5.95;;;;;;;5.26;80.63;98919.25;4108364;28;20258;-55
2022/01/02 05:55:32;;;;;;;6.95;6.45;;;;;;;5.27;80.61;98915.50;4121409;28;20281;-52
2022/01/02 05:57:34;;;;;;;6.85;6.25;;;;;;;5.25;80.63;98917.56;4108078;28;20256;-53
2022/01/02 05:59:37;;;;;;;7.05;6.45;;;;;;;5.26;80.98;98924.66;4109716;28;20210;-54
2022/01/02 06:01:38;;;;;;;7.70;7.00;;;;;;;5.26;80.65;98920.09;4122752;28;20213;-52
2022/01/02 06:03:40;;;;;;;6.60;5.90;;;;;;;5.25;80.77;98906.72;4124731;28;20689;-54
2022/01/02 06:05:42;;;;;;;7.45;6.85;;;;;;;5.24;80.64;98910.50;4109317;28;20229;-53
2022/01/02 06:07:43;;;;;;;7.28;6.68;;;;;;;5.27;80.76;98918.19;4123488;28;20225;-52
2022/01/02 06:09:45;;;;;;;7.82;7.22;;;;;;;5.25;80.82;98909.44;4118829;28;20718;-51
2022/01/02 06:11:47;;;;;;;7.80;7.20;;;;;;;5.27;80.55;98910.91;4111480;28;20248;-52
2022/01/02 06:13:50;;;;;;;6.40;5.85;;;;;;;5.26;80.67;98908.41;4106965;28;20223;-54
2022/01/02 06:15:53;;;;;;;7.07;6.53;;;;;;;5.23;80.39;98903.41;4122562;28;20250;-52
2022/01/02 06:17:54;;;;;;;6.43;5.90;;;;;;;5.24;80.65;98896.94;4119793;28;20303;-53
2022/01/02 06:19:56;;;;;;;6.50;6.00;;;;;;;5.22;80.39;98885.47;4122543;28;20703;-52
2022/01/02 06:21:58;;;;;;;11.57;6.95;;;;;;;5.21;80.75;98894.59;4109654;28;20207;-51
2022/01/02 06:24:00;;;;;;;9.13;8.32;;;;;;;5.29;80.59;98891.72;4107987;28;20596;-52
2022/01/02 06:26:02;;;;;;;8.85;8.15;;;;;;;5.29;80.30;98897.16;4107554;28;20235;-54
2022/01/02 06:28:04;;;;;;;8.55;7.72;;;;;;;5.29;80.60;98908.00;4107563;28;20304;-53
2022/01/02 06:30:07;;;;;;;9.63;8.73;;;;;;;5.27;80.44;98910.06;4124905;28;20237;-52
2022/01/02 06:32:08;;;;;;;7.78;6.93;;;;;;;5.26;80.56;98908.41;4106645;28;20273;-53
2022/01/02 06:34:10;;;;;;;9.27;8.48;;;;;;;5.25;80.51;98904.03;4107748;28;20705;-51
2022/01/02 06:36:12;;;;;;;8.73;8.02;;;;;;;5.29;80.61;98908.00;4107124;28;20587;-54
2022/01/02 06:38:19;;;;;;;7.65;6.90;;;;;;;5.31;80.52;98916.75;4108444;28;20236;-55
2022/01/02 06:40:21;;;;;;;8.32;7.53;;;;;;;5.30;80.59;98910.47;4124838;28;20225;-53
2022/01/02 06:42:23;;;;;;;14.27;8.13;;;;;;;5.32;80.40;98907.56;4107392;28;20221;-52
2022/01/02 06:44:25;;;;;;;9.50;8.70;;;;;;;5.31;80.63;98905.91;4124811;28;20244;-53
2022/01/02 06:46:26;;;;;;;7.88;7.28;;;;;;;5.31;80.71;98905.91;4125361;28;20209;-52
2022/01/02 06:48:28;;;;;;;8.88;8.05;;;;;;;5.31;80.46;98911.34;4114650;28;20234;-52
2022/01/02 06:50:31;;;;;;;7.82;7.10;;;;;;;5.30;80.81;98909.66;4109412;28;20226;-51
2022/01/02 06:52:32;;;;;;;8.40;7.70;;;;;;;5.32;81.30;98907.56;4108288;28;20601;-55
2022/01/02 06:54:34;;;;;;;11.30;7.20;;;;;;;5.35;81.95;98891.72;4109891;28;20258;-53
2022/01/02 06:56:36;;;;;;;7.93;7.22;;;;;;;5.38;81.80;98895.88;4106376;28;20592;-53
2022/01/02 06:58:39;;;;;;;6.95;6.40;;;;;;;5.38;81.92;98895.88;4118506;28;20253;-54
2022/01/02 07:00:42;;;;;;;7.38;6.68;;;;;;;5.38;81.60;98906.75;4107667;28;20207;-53
2022/01/02 07:02:44;;;;;;;7.78;7.10;;;;;;;5.37;81.49;98900.47;4126646;28;20683;-54
2022/01/02 07:04:46;;;;;;;7.03;6.38;;;;;;;5.39;81.58;98898.41;4096088;28;20439;-52
2022/01/02 07:06:47;;;;;;;7.13;6.43;;;;;;;5.37;81.34;98894.22;4105918;28;20257;-55
2022/01/02 07:08:55;;;;;;;7.65;7.03;;;;;;;5.37;81.44;98888.78;4119659;28;20237;-52
2022/01/02 07:10:56;;;;;;;8.98;8.27;;;;;;;5.44;81.53;98895.06;4103519;28;20314;-52
2022/01/02 07:12:59;;;;;;;7.78;7.07;;;;;;;5.45;81.65;98885.88;4103296;28;20219;-53
2022/01/02 07:15:02;;;;;;;7.05;6.55;;;;;;;5.47;81.37;98883.78;4124274;28;20752;-52
2022/01/02 07:17:04;;;;;;;7.63;7.03;;;;;;;5.47;81.40;98881.06;4111216;28;20241;-53
2022/01/02 07:19:06;;;;;;;7.50;6.90;;;;;;;5.49;81.36;98887.97;4124278;28;20296;-53
2022/01/02 07:21:07;;;;;;;6.68;6.18;;;;;;;5.51;81.16;98890.47;4122201;28;20250;-52
2022/01/02 07:23:09;;;;;;;7.60;7.00;;;;;;;5.50;81.08;98889.63;4108968;28;20211;-54
2022/01/02 07:25:11;;;;;;;6.85;6.22;;;;;;;5.52;81.50;98892.13;4121979;28;20679;-54
2022/01/02 07:27:13;;;;;;;7.53;6.93;;;;;;;5.53;80.96;98891.09;4111119;28;20281;-53
2022/01/02 07:29:15;;;;;;;8.25;7.47;;;;;;;5.61;81.45;98890.88;4111944;28;20237;-56
2022/01/02 07:31:17;;;;;;;9.93;6.00;;;;;;;5.54;80.73;98884.59;4108303;28;20265;-55
2022/01/02 07:33:19;;;;;;;7.43;6.82;;;;;;;5.50;80.78;98872.53;4110293;28;20238;-51
2022/01/02 07:35:20;;;;;;;7.28;6.68;;;;;;;5.48;80.79;98864.59;4108083;28;20202;-56
2022/01/02 07:37:22;;;;;;;10.05;7.38;;;;;;;5.51;80.88;98856.03;4088845;28;20252;-54
2022/01/02 07:39:24;;;;;;;6.43;5.85;;;;;;;5.49;81.64;98855.38;4121113;28;20597;-54
2022/01/02 07:41:26;;;;;;;7.50;6.80;;;;;;;5.55;81.57;98845.59;4126077;28;20631;-52
2022/01/02 07:43:28;;;;;;;8.05;7.35;;;;;;;5.54;81.83;98835.75;4111477;28;20274;-54
2022/01/02 07:45:29;;;;;;;9.85;7.60;;;;;;;5.55;81.83;98842.88;4111738;28;20237;-52
2022/01/02 07:47:31;;;;;;;6.35;5.85;;;;;;;5.55;81.97;98842.88;4094622;28;20241;-54
2022/01/02 07:49:33;;;;;;;7.00;6.40;;;;;;;5.55;81.64;98856.44;4125389;28;20217;-54
2022/01/02 07:51:46;;;;;;;7.70;5.75;;;;;;;5.56;81.83;98866.25;4127971;28;20959;-53
2022/01/02 07:53:48;;;;;;;6.53;6.03;;;;;;;5.57;81.51;98857.88;4079394;29;20216;-52
2022/01/02 07:55:50;;;;;;;7.82;7.13;;;;;;;5.61;81.96;98855.59;4113943;28;20334;-54
2022/01/02 07:57:53;;;;;;;7.45;6.72;;;;;;;5.64;81.68;98863.31;4128272;28;20348;-53
2022/01/02 08:00:08;;;;;;;11.23;9.80;;;;;;;5.71;81.63;98865.00;4125345;28;20208;-54
2022/01/02 08:02:34;;;;;;;13.38;12.07;;;;;;;5.70;81.13;98857.06;4093742;28;20214;-55
2022/01/02 08:05:26;;;;;;;14.27;12.82;;;;;;;5.73;81.45;98859.34;4128812;28;20293;-55
2022/01/02 08:07:51;;;;;;;26.85;19.90;;;;;;;5.67;81.21;98846.59;4111394;28;20231;-56
2022/01/02 08:10:06;;;;;;;28.95;21.83;;;;;;;5.63;81.27;98848.09;4097089;28;20223;-52
2022/01/02 08:12:08;;;;;;;15.48;14.05;;;;;;;5.68;81.29;98834.69;4128435;28;20209;-53
2022/01/02 08:14:10;;;;;;;17.92;16.02;;;;;;;5.70;81.37;98841.59;4113375;28;20281;-54
2022/01/02 08:16:12;;;;;;;14.98;13.30;;;;;;;5.70;81.70;98843.47;4111091;28;20747;-54
2022/01/02 08:18:17;;;;;;;18.70;14.38;;;;;;;5.68;81.80;98834.69;4111735;28;20309;-53
2022/01/02 08:20:19;;;;;;;15.55;14.00;;;;;;;5.70;81.51;98835.34;4110876;28;20305;-53
2022/01/02 08:22:26;;;;;;;15.18;13.73;;;;;;;5.72;81.51;98844.94;4113338;28;20206;-54
2022/01/02 08:24:28;;;;;;;14.40;12.13;;;;;;;5.78;81.55;98848.69;4113142;28;20210;-57
2022/01/02 08:26:30;;;;;;;12.13;10.88;;;;;;;5.88;81.62;98855.38;4125616;28;20284;-57
2022/01/02 08:28:32;;;;;;;10.80;9.75;;;;;;;5.82;81.25;98858.13;4112578;28;20317;-55
2022/01/02 08:30:34;;;;;;;11.70;10.60;;;;;;;5.83;81.71;98865.22;4112696;28;20274;-55
2022/01/02 08:32:38;;;;;;;12.15;11.05;;;;;;;5.88;81.59;98868.13;4110630;28;20700;-54
2022/01/02 08:34:40;;;;;;;10.95;9.93;;;;;;;5.89;81.44;98872.50;4110972;28;20222;-54
2022/01/02 08:36:42;;;;;;;12.27;11.02;;;;;;;5.91;81.06;98871.25;4109831;28;20617;-56
2022/01/02 08:38:50;;;;;;;13.15;12.02;;;;;;;5.97;81.24;98875.00;4114038;28;20229;-55
2022/01/02 08:40:53;;;;;;;14.70;13.32;;;;;;;5.97;81.14;98880.44;4111003;28;20258;-55
2022/01/02 08:42:58;;;;;;;17.38;14.90;;;;;;;6.01;81.16;98878.94;4111047;28;20577;-54
2022/01/02 08:44:59;;;;;;;12.23;10.95;;;;;;;6.04;81.24;98871.22;4126558;28;20338;-53
2022/01/02 08:47:01;;;;;;;12.68;11.68;;;;;;;6.15;81.10;98867.03;4128274;28;20206;-54
2022/01/02 08:49:12;;;;;;;9.25;8.45;;;;;;;6.18;81.15;98861.16;4124018;28;20816;-54
2022/01/02 08:51:18;;;;;;;8.23;7.63;;;;;;;6.27;81.17;98859.84;4127081;28;20200;-54
2022/01/02 08:53:19;;;;;;;10.18;9.10;;;;;;;6.30;81.00;98851.28;4112345;28;20723;-54
2022/01/02 08:55:28;;;;;;;9.48;8.45;;;;;;;6.37;81.03;98844.75;4109221;28;20246;-53
2022/01/02 08:57:30;;;;;;;10.60;9.70;;;;;;;6.40;81.08;98859.81;4110704;28;20198;-53
2022/01/02 08:59:31;;;;;;;14.77;10.30;;;;;;;6.44;80.60;98847.47;4110764;28;20218;-54
2022/01/02 09:01:34;;;;;;;9.07;8.20;;;;;;;6.45;80.91;98851.84;4128025;28;20258;-53
2022/01/02 09:03:40;;;;;;;8.93;8.13;;;;;;;6.60;81.02;98847.81;4110318;28;20258;-53
2022/01/02 09:05:50;;;;;;;7.13;6.53;;;;;;;6.64;80.61;98840.06;4111971;28;20202;-53
2022/01/02 09:07:51;;;;;;;7.22;6.72;;;;;;;6.77;79.92;98837.25;4124468;28;20616;-53
2022/01/02 09:09:53;;;;;;;6.57;6.07;;;;;;;6.82;80.30;98832.00;4096976;28;20597;-54
2022/01/02 09:11:54;;;;;;;7.25;6.65;;;;;;;6.97;78.99;98818.94;4124961;28;20242;-55
2022/01/02 09:14:02;;;;;;;7.57;7.05;;;;;;;6.97;79.20;98797.16;4108933;28;20238;-54
2022/01/02 09:16:08;;;;;;;8.95;7.13;;;;;;;6.94;79.90;98820.19;4127176;28;20210;-54
2022/01/02 09:18:10;;;;;;;6.80;6.25;;;;;;;6.89;79.66;98839.06;4113526;28;20776;-53
2022/01/02 09:20:17;;;;;;;9.40;8.65;;;;;;;6.87;80.00;98867.53;4113412;28;20203;-54
2022/01/02 09:22:19;;;;;;;10.50;9.70;;;;;;;7.00;79.91;98867.44;4130633;28;20206;-54
2022/01/02 09:24:21;;;;;;;9.80;9.10;;;;;;;7.00;79.93;98862.00;4110698;28;20210;-54
2022/01/02 09:26:28;;;;;;;7.68;7.07;;;;;;;6.96;79.97;98852.63;4127537;28;20209;-54
2022/01/02 09:28:30;;;;;;;8.80;8.20;;;;;;;6.98;80.23;98861.41;4111186;28;20223;-54
2022/01/02 09:30:32;;;;;;;11.10;10.13;;;;;;;6.97;80.18;98862.47;4109518;28;20206;-54
2022/01/02 09:32:35;;;;;;;10.13;9.13;;;;;;;7.06;79.92;98855.69;4110869;28;20198;-55
2022/01/02 09:34:37;;;;;;;9.88;9.07;;;;;;;7.13;80.21;98861.91;4111662;28;20666;-53
2022/01/02 09:36:39;;;;;;;8.48;7.78;;;;;;;7.17;79.85;98874.03;4128238;28;20280;-54
2022/01/02 09:38:43;;;;;;;8.80;8.13;;;;;;;7.15;80.53;98876.97;4109813;28;20223;-54
2022/01/02 09:40:51;;;;;;;8.38;7.68;;;;;;;7.22;80.67;98872.31;4111101;28;20302;-54
2022/01/02 09:42:56;;;;;;;7.57;6.88;;;;;;;7.19;80.55;98863.75;4112597;28;20211;-54
2022/01/02 09:44:57;;;;;;;6.95;6.43;;;;;;;7.25;79.73;98860.16;4109686;28;20239;-54
2022/01/02 09:47:00;;;;;;;8.20;7.50;;;;;;;7.49;79.10;98859.34;4126267;28;20233;-54
2022/01/02 09:49:03;;;;;;;8.70;8.00;;;;;;;7.52;79.47;98846.13;4093630;28;20801;-54
2022/01/02 09:51:17;;;;;;;9.25;8.35;;;;;;;7.63;78.29;98841.84;4108755;28;20238;-53
2022/01/02 09:53:19;;;;;;;6.60;6.00;;;;;;;7.78;77.33;98824.09;4111094;28;20281;-53
2022/01/02 09:55:21;;;;;;;5.65;4.93;;;;;;;7.96;77.14;98826.00;4109317;28;20703;-54